Αναφορές METAR Αεροδρομίων

 

LGTS - THESSALONIKI - GREECE
Ενημερώθηκε: 18/12/2018 13:20
Βροχή, Σχεδόν νεφελώδης
Βροχή, Σχεδόν νεφελώδης
 Ανεμος από ΒΒΔ
Ανεμος: ΒΒΔ 31 km/h, Ριπή: 50 km/h
Θερμοκρασία: 5°C
Wind Chill: 0°C
Σημ. Δρόσου: 2°C
Υγρασία: 81%
Βαρόμετρο: 1018 hPa
Περίληψη: Βροχή
Clouds: Σχεδόν νεφελώδης
Visibility: 7 km
Cloud details: Μερικώς νεφελώδης 305 m
Σχεδόν νεφελώδης 762 m
2018/12/18 11:20 LGTS 181120Z 33017G27KT 7000 RA SCT010 BKN025 05/02 Q1018 NOSIG
LGLR - LARTISA - GREECE
Ενημερώθηκε: 18/12/2018 12:50
Συννεφιά
Συννεφιά
 Ανεμος από Β
Ανεμος: Β 15 km/h
Θερμοκρασία: 7°C
Wind Chill: 4°C
Σημ. Δρόσου: 4°C
Υγρασία: 81%
Βαρόμετρο: 1017 hPa
Clouds: Συννεφιά
Visibility: 10 km
Cloud details: Αραιές Νεφώσεις 244 m
Σχεδόν νεφελώδης 762 m
Συννεφιά 2438 m
2018/12/18 10:50 LGLR 181050Z 01008KT 9999 FEW008 BKN025 OVC080 07/04 Q1017 BLU
 
LGKZ - KOZANI - GREECE
Ενημερώθηκε: 18/12/2018 12:50
Light snow, Συννεφιά
Light snow, Συννεφιά
 Ανεμος από ΒΔ
Ανεμος: ΒΔ 35 km/h
Θερμοκρασία: 0°C
Wind Chill: -7°C
Σημ. Δρόσου: -2°C
Υγρασία: 87%
Βαρόμετρο: 1017 hPa
Περίληψη: Light Snow
Clouds: Συννεφιά
Visibility: 6 km
Cloud details: Μερικώς νεφελώδης 61 m
Σχεδόν νεφελώδης 457 m
Συννεφιά 1829 m
2018/12/18 10:50 LGKZ 181050Z 32019KT 6000 -SN SCT002 BKN015 OVC060 00/M02 Q1017
LGKV - KAVALA - GREECE
Ενημερώθηκε: 18/12/2018 13:20
Βροχή, Συννεφιά
Βροχή, Συννεφιά
 Ανεμος από ΝΑ
Ανεμος: ΝΑ 7 km/h
Θερμοκρασία: 7°C
Wind Chill: 6°C
Σημ. Δρόσου: 5°C
Υγρασία: 87%
Βαρόμετρο: 1017 hPa
Περίληψη: Βροχή
Clouds: Συννεφιά
Visibility: 8 km
Cloud details: Αραιές Νεφώσεις 244 m
Σχεδόν νεφελώδης 762 m
Συννεφιά 1829 m
2018/12/18 11:20 LGKV 181120Z 13004KT 8000 RA FEW008 BKN025 OVC060 07/05 Q1017
 
LGIO - IOANNINA - GREECE
Ενημερώθηκε: 18/12/2018 13:20
Συννεφιά
Συννεφιά
 Ανεμος από varies
Ανεμος: varies 0 km/h
Θερμοκρασία: 10°C
Σημ. Δρόσου: 3°C
Υγρασία: 62%
Βαρόμετρο: 1012 hPa
Clouds: Συννεφιά
Visibility: 10 km
Cloud details: Μερικώς νεφελώδης 1067 m
Συννεφιά 2438 m
2018/12/18 11:20 LGIO 181120Z /////KT 9999 SCT035 OVC080 10/03 Q1012
LGBL - BOLOS - GREECE
Ενημερώθηκε: 18/12/2018 13:20
Συννεφιά
Συννεφιά
 Ανεμος από Δ
Ανεμος: Δ 26 km/h
Θερμοκρασία: 6°C
Wind Chill: 2°C
Σημ. Δρόσου: 3°C
Υγρασία: 81%
Βαρόμετρο: 1017 hPa
Clouds: Συννεφιά
Visibility: 10 km
Cloud details: Αραιές Νεφώσεις 366 m
Σχεδόν νεφελώδης 762 m
Συννεφιά 2438 m
2018/12/18 11:20 LGBL 181120Z 26014KT 9999 FEW012 BKN025 OVC080 06/03 Q1017
 
LGMT - MITILINI - GREECE
Ενημερώθηκε: 18/12/2018 13:20
Ασθενής βροχή, Σχεδόν νεφελώδης
Ασθενής βροχή, Σχεδόν νεφελώδης
 Ανεμος από varies
Ανεμος: varies 4 km/h
Θερμοκρασία: 11°C
Σημ. Δρόσου: 9°C
Υγρασία: 88%
Βαρόμετρο: 1014 hPa
Περίληψη: Ασθενής βροχή
Clouds: Σχεδόν νεφελώδης
Visibility: 10 km
Cloud details: Αραιές Νεφώσεις 427 m
Σχεδόν νεφελώδης 762 m
2018/12/18 11:20 LGMT 181120Z VRB02KT 9999 -RA FEW014 BKN025 11/09 Q1014
LGAV - ATHENS - GREECE
Ενημερώθηκε: 18/12/2018 13:20
Ασθενής βροχή, Σχεδόν νεφελώδης
Ασθενής βροχή, Σχεδόν νεφελώδης
 Ανεμος από ΔΒΔ
Ανεμος: ΔΒΔ 15 km/h
Θερμοκρασία: 11°C
Σημ. Δρόσου: 6°C
Υγρασία: 72%
Βαρόμετρο: 1012 hPa
Περίληψη: Ασθενής βροχή
Clouds: Σχεδόν νεφελώδης
Visibility: 10 km
Cloud details: Αραιές Νεφώσεις 549 m
Σχεδόν νεφελώδης 1067 m
2018/12/18 11:20 LGAV 181120Z 30008KT 9999 -RA FEW018 BKN035 11/06 Q1012 NOSIG
 
LGRP - RODOS - GREECE
Ενημερώθηκε: 18/12/2018 13:20
Μερικώς νεφελώδης
Μερικώς νεφελώδης
 Ανεμος από ΝΝΑ
Ανεμος: ΝΝΑ 9 km/h
Θερμοκρασία: 14°C
Σημ. Δρόσου: 14°C
Υγρασία: 100%
Βαρόμετρο: 1010 hPa
Clouds: Μερικώς νεφελώδης
Visibility: 10 km
Cloud details: Αραιές Νεφώσεις 305 m
Αραιές Νεφώσεις 549 m
Μερικώς νεφελώδης 762 m
2018/12/18 11:20 LGRP 181120Z 16005KT 9999 FEW010 FEW018TCU SCT025 14/14 Q1010 NOSIG
LGIR - HRAKLIO/KRITI - GREECE
Ενημερώθηκε: 18/12/2018 13:20
Ασθενής βροχή, Σχεδόν νεφελώδης
Ασθενής βροχή, Σχεδόν νεφελώδης
 Ανεμος από Δ
Ανεμος: Δ 26 km/h
Θερμοκρασία: 15°C
Σημ. Δρόσου: 12°C
Υγρασία: 82%
Βαρόμετρο: 1012 hPa
Περίληψη: Ασθενής βροχή
Clouds: Σχεδόν νεφελώδης
Visibility: 10 km
Cloud details: Αραιές Νεφώσεις 549 m
Μερικώς νεφελώδης 762 m
Σχεδόν νεφελώδης 2438 m
2018/12/18 11:20 LGIR 181120Z 28014KT 9999 -RA FEW018TCU SCT025 BKN080 15/12 Q1012 NOSIG
 
LGMK - MIKONOS - GREECE
Ενημερώθηκε: 18/12/2018 13:20
Ασθενής βροχή, Μερικώς νεφελώδης
Ασθενής βροχή, Μερικώς νεφελώδης
 Ανεμος από Β
Ανεμος: Β 19 km/h
Θερμοκρασία: 13°C
Σημ. Δρόσου: 11°C
Υγρασία: 88%
Βαρόμετρο: 1009 hPa
Περίληψη: Ασθενής βροχή
Clouds: Μερικώς νεφελώδης
Visibility: 10 km
Cloud details: Αραιές Νεφώσεις 305 m
Μερικώς νεφελώδης 610 m
2018/12/18 11:20 LGMK 181120Z 36010KT 9999 -RA FEW010 SCT020TCU 13/11 Q1009
LGKR - KERKIRA - GREECE
Ενημερώθηκε: 18/12/2018 12:50
Σχεδόν νεφελώδης
Σχεδόν νεφελώδης
 Ανεμος από ΒΔ
Ανεμος: ΒΔ 7 km/h
Θερμοκρασία: 12°C
Σημ. Δρόσου: 8°C
Υγρασία: 77%
Βαρόμετρο: 1013 hPa
Clouds: Σχεδόν νεφελώδης
Visibility: 10 km
Cloud details: Αραιές Νεφώσεις 305 m
Μερικώς νεφελώδης 549 m
Σχεδόν νεφελώδης 914 m
2018/12/18 10:50 LGKR 181050Z 32004KT 9999 FEW010 SCT018 BKN030 12/08 Q1013 NOSIG